createdAt,value
2022-08-05T00:54:02.547Z,22.17
2022-08-05T00:58:27.520Z,22.20
2022-08-05T01:03:30.861Z,22.29
2022-08-05T01:08:41.930Z,22.13
2022-08-05T01:13:27.254Z,21.76
2022-08-05T01:18:27.469Z,21.61
2022-08-05T01:23:25.637Z,21.56
2022-08-05T01:28:26.911Z,21.71
2022-08-05T01:33:26.197Z,21.51
2022-08-05T01:38:29.033Z,21.38
2022-08-05T01:43:28.729Z,21.38
2022-08-05T01:48:25.332Z,21.34
2022-08-05T01:53:55.108Z,21.42
2022-08-05T01:58:40.953Z,21.30
2022-08-05T02:03:32.023Z,20.89
2022-08-05T02:08:30.930Z,20.87
2022-08-05T02:13:25.998Z,21.08
2022-08-05T02:18:30.615Z,20.98
2022-08-05T02:23:25.874Z,20.91
2022-08-05T02:28:29.093Z,20.65
2022-08-05T02:33:36.104Z,20.64
2022-08-05T02:38:27.062Z,20.77
2022-08-05T02:43:28.664Z,20.80
2022-08-05T02:48:29.374Z,20.64
2022-08-05T02:54:37.441Z,20.65
2022-08-05T02:59:50.705Z,20.31
2022-08-05T03:04:38.264Z,20.43
2022-08-05T03:09:37.369Z,20.15
2022-08-05T03:14:45.646Z,20.15
2022-08-05T03:19:36.805Z,20.15
2022-08-05T03:24:35.675Z,20.34
2022-08-05T03:29:45.880Z,20.47
2022-08-05T03:34:36.548Z,20.62
2022-08-05T03:39:58.568Z,20.72
2022-08-05T03:44:39.538Z,20.62
2022-08-05T03:49:51.993Z,20.56
2022-08-05T03:55:53.226Z,20.86
2022-08-05T03:59:47.101Z,21.92
2022-08-05T04:04:36.199Z,22.64
2022-08-05T04:09:36.514Z,23.07
2022-08-05T04:14:36.358Z,23.42
2022-08-05T04:19:34.961Z,23.34
2022-08-05T04:24:34.993Z,23.29
2022-08-05T04:29:34.816Z,23.11
2022-08-05T04:34:37.494Z,23.34
2022-08-05T04:39:35.828Z,23.75
2022-08-05T04:44:37.648Z,23.76
2022-08-05T04:49:39.105Z,25.15
2022-08-05T04:54:35.631Z,25.32
2022-08-05T04:59:40.459Z,26.01
2022-08-05T05:04:35.634Z,26.81
2022-08-05T05:09:34.334Z,27.85
2022-08-05T05:14:36.257Z,28.26
2022-08-05T05:19:37.117Z,28.82
2022-08-05T05:24:57.164Z,27.62
2022-08-05T05:30:03.177Z,26.36
2022-08-05T05:34:35.064Z,25.71
2022-08-05T05:39:35.175Z,25.17
2022-08-05T05:44:37.675Z,25.00
2022-08-05T05:49:34.844Z,24.88
2022-08-05T05:54:49.976Z,24.47
2022-08-05T05:59:40.319Z,23.98
2022-08-05T06:04:34.635Z,24.20
2022-08-05T06:09:49.194Z,23.82
2022-08-05T06:14:34.985Z,23.71
2022-08-05T06:19:34.568Z,23.70
2022-08-05T06:24:33.378Z,23.75
2022-08-05T06:29:49.650Z,23.71
2022-08-05T06:34:36.494Z,24.27
2022-08-05T06:39:33.233Z,25.15
2022-08-05T06:44:36.150Z,26.89
2022-08-05T06:50:00.759Z,26.55
2022-08-05T06:54:33.992Z,26.17
2022-08-05T06:59:38.523Z,26.94
2022-08-05T07:04:33.945Z,28.07
2022-08-05T07:09:32.753Z,29.35
2022-08-05T07:14:34.337Z,29.89
2022-08-05T07:20:23.040Z,30.50
2022-08-05T07:24:35.088Z,31.21
2022-08-05T07:30:27.255Z,29.97
2022-08-05T07:34:33.529Z,30.91
2022-08-05T07:40:04.074Z,31.28
2022-08-05T07:44:37.986Z,30.90
2022-08-05T07:49:32.382Z,31.75
2022-08-05T07:54:33.807Z,31.68
2022-08-05T07:59:39.746Z,31.54
2022-08-05T08:04:37.736Z,31.95
2022-08-05T08:09:33.054Z,32.07
2022-08-05T08:14:32.052Z,32.10
2022-08-05T08:20:22.113Z,32.22
2022-08-05T08:24:51.856Z,31.93
2022-08-05T08:30:04.059Z,31.92
2022-08-05T08:34:33.412Z,31.49
2022-08-05T08:39:31.918Z,31.24
2022-08-05T08:45:19.237Z,30.21
2022-08-05T08:50:22.802Z,30.24
2022-08-05T08:54:38.991Z,30.23
2022-08-05T08:59:33.807Z,30.45
2022-08-05T09:04:31.471Z,30.67
2022-08-05T09:09:34.867Z,30.69
2022-08-05T09:14:57.545Z,30.64
2022-08-05T09:19:36.368Z,30.67
2022-08-05T09:24:31.212Z,31.20
2022-08-05T09:29:31.225Z,31.01
2022-08-05T09:34:31.085Z,30.89
2022-08-05T09:39:45.816Z,30.87
2022-08-05T09:44:34.957Z,31.06
2022-08-05T09:49:40.311Z,31.61
2022-08-05T09:54:33.276Z,31.65
2022-08-05T09:59:34.759Z,31.75
2022-08-05T10:04:31.854Z,31.33
2022-08-05T10:09:30.620Z,31.31
2022-08-05T10:14:32.115Z,31.38
2022-08-05T10:19:31.955Z,31.36
2022-08-05T10:24:31.467Z,31.42
2022-08-05T10:30:41.423Z,31.42
2022-08-05T10:34:31.366Z,31.73
2022-08-05T10:40:03.354Z,31.53
2022-08-05T10:44:34.214Z,31.73
2022-08-05T10:49:33.310Z,32.02
2022-08-05T13:09:04.160Z,31.70
2022-08-05T13:14:06.342Z,31.30
2022-08-05T13:19:02.928Z,31.68
2022-08-05T13:24:01.835Z,31.43
2022-08-05T13:29:01.796Z,31.55
2022-08-05T13:34:22.197Z,31.54
2022-08-05T13:39:02.739Z,31.36
2022-08-05T13:44:03.556Z,31.61
2022-08-05T13:49:01.703Z,31.26
2022-08-05T13:54:01.482Z,31.75
2022-08-05T13:59:06.262Z,32.00
2022-08-05T14:04:02.353Z,31.99
2022-08-05T14:09:01.378Z,32.57
2022-08-05T14:14:01.224Z,33.19
2022-08-05T14:19:04.414Z,31.95
2022-08-05T14:24:09.012Z,32.42
2022-08-05T14:29:00.997Z,32.20
2022-08-05T14:34:01.039Z,32.43
2022-08-05T14:39:02.767Z,31.73
2022-08-05T14:44:09.570Z,31.54
2022-08-05T14:49:06.906Z,31.80
2022-08-05T14:54:27.054Z,31.88
2022-08-05T14:59:04.641Z,32.03
2022-08-05T15:04:08.434Z,31.95
2022-08-05T15:59:42.994Z,27.76
2022-08-05T16:04:33.602Z,27.70
2022-08-05T16:09:33.591Z,27.26
2022-08-05T16:14:33.736Z,26.31
2022-08-05T16:20:04.525Z,26.68
2022-08-05T16:24:41.519Z,26.08
2022-08-05T16:29:37.697Z,25.80
2022-08-05T16:34:33.254Z,25.32
2022-08-05T16:40:05.014Z,25.17
2022-08-05T16:44:34.163Z,25.16
2022-08-05T16:49:36.169Z,24.22
2022-08-05T16:54:33.341Z,23.68
2022-08-05T17:00:00.412Z,23.35
2022-08-05T17:04:33.876Z,23.11
2022-08-05T17:09:57.265Z,23.14
2022-08-05T17:14:37.664Z,23.05
2022-08-05T17:19:32.688Z,23.09
2022-08-05T17:24:38.950Z,22.86
2022-08-05T19:58:53.785Z,19.46
2022-08-05T20:03:38.824Z,18.65
2022-08-05T20:08:28.926Z,18.33
2022-08-05T20:13:54.920Z,18.22
2022-08-05T20:18:33.303Z,18.18
2022-08-05T20:23:40.177Z,18.15
2022-08-05T20:28:28.322Z,17.71
2022-08-05T20:33:27.392Z,17.40
2022-08-05T20:38:28.251Z,17.35
2022-08-05T20:43:57.985Z,17.51
2022-08-05T20:48:30.927Z,17.71
2022-08-05T20:53:36.749Z,17.70
2022-08-05T20:58:27.827Z,17.69
2022-08-05T21:03:26.675Z,17.87
2022-08-05T21:08:41.844Z,17.73
2022-08-05T21:13:47.975Z,17.81
2022-08-05T21:18:27.665Z,17.71
2022-08-05T21:23:26.382Z,17.82
2022-08-05T21:28:30.604Z,17.89
2022-08-05T21:33:26.297Z,18.13
2022-08-05T21:38:27.229Z,18.27
2022-08-05T21:43:26.144Z,18.27
2022-08-05T21:48:31.939Z,18.22
2022-08-05T21:53:27.590Z,18.02
2022-08-05T21:58:32.044Z,17.79
2022-08-05T23:44:05.318Z,17.11
2022-08-05T23:48:26.416Z,17.18
2022-08-05T23:53:46.129Z,17.13
2022-08-05T23:58:32.112Z,17.11
